createdAt,value
2022-11-27T00:01:14.478Z,98594.94
2022-11-27T00:03:42.257Z,98589.88
2022-11-27T00:06:12.922Z,98603.50
2022-11-27T00:08:39.440Z,98598.56
2022-11-27T00:11:11.126Z,98617.19
2022-11-27T00:13:37.799Z,98628.41
2022-11-27T00:16:05.261Z,98581.00
2022-11-27T00:18:32.306Z,98623.63
2022-11-27T00:21:07.170Z,98600.06
2022-11-27T00:23:34.686Z,98634.06
2022-11-27T00:26:01.700Z,98631.81
2022-11-27T00:28:28.743Z,98628.38
2022-11-27T00:31:02.940Z,98621.94
2022-11-27T00:33:29.484Z,98610.75
2022-11-27T00:35:56.266Z,98626.41
2022-11-27T00:38:23.210Z,98632.75
2022-11-27T00:40:50.286Z,98588.41
2022-11-27T00:43:16.839Z,98606.56
2022-11-27T00:45:43.204Z,98582.50
2022-11-27T00:48:09.622Z,98616.16
2022-11-27T00:50:36.009Z,98602.97
2022-11-27T00:53:02.455Z,98609.84
2022-11-27T00:55:29.704Z,98601.13
2022-11-27T00:57:56.320Z,98596.47
2022-11-27T01:00:23.340Z,98587.50
2022-11-27T01:02:49.761Z,98594.00
2022-11-27T01:05:16.749Z,98580.06
2022-11-27T01:07:43.181Z,98576.34
2022-11-27T01:10:10.225Z,98581.91
2022-11-27T01:12:36.593Z,98569.03
2022-11-27T01:15:03.233Z,98578.72
2022-11-27T01:17:29.730Z,98553.81
2022-11-27T01:19:56.371Z,98512.97
2022-11-27T01:22:22.857Z,98539.69
2022-11-27T01:24:49.256Z,98555.84
2022-11-27T01:27:15.621Z,98561.44
2022-11-27T01:29:42.013Z,98557.72
2022-11-27T01:32:08.423Z,98569.81
2022-11-27T01:34:35.262Z,98591.88
2022-11-27T01:37:01.661Z,98589.84
2022-11-27T01:39:28.040Z,98570.66
2022-11-27T01:41:54.433Z,98572.59
2022-11-27T01:44:23.864Z,98570.63
2022-11-27T01:46:57.877Z,98542.13
2022-11-27T01:49:30.581Z,98566.13
2022-11-27T01:52:11.775Z,98571.63
2022-11-27T01:54:54.319Z,98568.50
2022-11-27T01:57:24.800Z,98551.91
2022-11-27T01:59:53.432Z,98572.41
2022-11-27T02:02:19.951Z,98567.94
2022-11-27T02:04:46.583Z,98562.34
2022-11-27T02:07:13.463Z,98561.81
2022-11-27T02:09:40.276Z,98550.88
2022-11-27T02:12:25.059Z,98547.88
2022-11-27T02:15:03.356Z,98562.72
2022-11-27T02:17:44.748Z,98576.84
2022-11-27T02:20:28.452Z,98569.88
2022-11-27T02:23:09.999Z,98570.16
2022-11-27T02:26:22.952Z,98597.94
2022-11-27T02:29:09.482Z,98568.41
2022-11-27T02:31:48.258Z,98587.94
2022-11-27T02:34:25.367Z,98582.28
2022-11-27T02:37:03.168Z,98581.41
2022-11-27T02:39:38.487Z,98590.47
2022-11-27T02:42:27.673Z,98579.22
2022-11-27T02:45:02.444Z,98579.84
2022-11-27T02:47:30.878Z,98590.00
2022-11-27T02:49:59.307Z,98599.44
2022-11-27T02:52:28.118Z,98610.88
2022-11-27T02:55:03.364Z,98596.06
2022-11-27T02:57:32.189Z,98601.47
2022-11-27T03:00:00.532Z,98599.50
2022-11-27T03:02:32.881Z,98573.78
2022-11-27T03:05:02.764Z,98582.31
2022-11-27T03:07:52.807Z,98592.69
2022-11-27T03:10:30.030Z,98565.47
2022-11-27T03:12:57.431Z,98568.44
2022-11-27T03:15:25.827Z,98556.28
2022-11-27T03:18:00.440Z,98561.09
2022-11-27T03:20:31.410Z,98571.75
2022-11-27T03:22:58.100Z,98573.59
2022-11-27T03:25:24.940Z,98573.69
2022-11-27T03:28:00.997Z,98546.31
2022-11-27T03:30:27.707Z,98543.47
2022-11-27T03:32:54.345Z,98559.41
2022-11-27T03:35:24.876Z,98550.00
2022-11-27T03:37:52.767Z,98565.88
2022-11-27T03:40:20.045Z,98560.56
2022-11-27T03:43:02.487Z,98546.78
2022-11-27T03:45:40.790Z,98557.06
2022-11-27T03:48:19.532Z,98548.31
2022-11-27T03:51:13.077Z,98542.75
2022-11-27T03:53:42.560Z,98558.91
2022-11-27T03:56:27.203Z,98561.50
2022-11-27T03:59:06.210Z,98559.25
2022-11-27T04:01:32.933Z,98562.78
2022-11-27T04:03:59.429Z,98560.91
2022-11-27T04:06:25.936Z,98550.03
2022-11-27T04:08:52.878Z,98548.09
2022-11-27T04:11:19.508Z,98558.56
2022-11-27T04:13:45.941Z,98531.00
2022-11-27T04:16:12.423Z,98544.97
2022-11-27T04:18:38.871Z,98558.22
2022-11-27T04:21:05.468Z,98571.00
2022-11-27T04:23:32.111Z,98554.50
2022-11-27T04:25:58.462Z,98557.53
2022-11-27T04:28:24.838Z,98561.41
2022-11-27T04:30:54.698Z,98559.56
2022-11-27T04:33:22.084Z,98559.28
2022-11-27T04:35:49.204Z,98554.19
2022-11-27T04:38:15.779Z,98566.69
2022-11-27T04:40:42.159Z,98565.59
2022-11-27T04:43:08.554Z,98564.91
2022-11-27T04:45:35.068Z,98548.25
2022-11-27T04:48:01.516Z,98560.75
2022-11-27T04:50:27.995Z,98559.72
2022-11-27T04:52:54.410Z,98563.09
2022-11-27T04:55:20.855Z,98544.97
2022-11-27T04:57:47.240Z,98559.25
2022-11-27T05:00:15.017Z,98558.41
2022-11-27T05:02:41.567Z,98571.31
2022-11-27T05:05:08.621Z,98565.13
2022-11-27T05:07:35.455Z,98552.38
2022-11-27T05:10:01.991Z,98553.06
2022-11-27T05:12:28.389Z,98527.94
2022-11-27T05:14:54.787Z,98553.88
2022-11-27T05:17:21.186Z,98478.19
2022-11-27T05:19:47.619Z,98511.84
2022-11-27T05:22:14.016Z,98506.72
2022-11-27T05:24:40.725Z,98523.69
2022-11-27T05:27:07.424Z,98532.69
2022-11-27T05:29:33.935Z,98495.09
2022-11-27T05:32:00.410Z,98532.72
2022-11-27T05:34:26.892Z,98506.72
2022-11-27T05:36:53.347Z,98512.72
2022-11-27T05:39:19.767Z,98512.44
2022-11-27T05:41:46.768Z,98531.75
2022-11-27T05:44:14.782Z,98530.72
2022-11-27T05:46:43.793Z,98547.66
2022-11-27T05:49:15.660Z,98537.75
2022-11-27T05:51:49.184Z,98526.50
2022-11-27T05:54:17.625Z,98528.06
2022-11-27T05:56:44.831Z,98533.44
2022-11-27T05:59:12.527Z,98545.47
2022-11-27T06:01:38.938Z,98522.69
2022-11-27T06:04:05.444Z,98537.94
2022-11-27T06:06:31.835Z,98550.09
2022-11-27T06:08:58.338Z,98561.94
2022-11-27T06:11:24.761Z,98535.00
2022-11-27T06:13:51.427Z,98549.78
2022-11-27T06:16:20.968Z,98519.31
2022-11-27T06:18:55.186Z,98535.00
2022-11-27T06:21:22.760Z,98528.34
2022-11-27T06:23:52.410Z,98516.16
2022-11-27T06:26:21.868Z,98501.97
2022-11-27T06:28:49.025Z,98485.88
2022-11-27T06:31:21.374Z,98502.31
2022-11-27T06:33:49.901Z,98477.28
2022-11-27T06:36:17.494Z,98482.09
2022-11-27T06:38:44.365Z,98479.88
2022-11-27T06:41:16.962Z,98478.88
2022-11-27T06:43:44.078Z,98470.84
2022-11-27T06:46:16.056Z,98470.13
2022-11-27T06:48:43.913Z,98462.56
2022-11-27T06:51:14.102Z,98446.03
2022-11-27T06:53:41.007Z,98445.03
2022-11-27T06:56:09.940Z,98456.50
2022-11-27T06:58:37.322Z,98462.72
2022-11-27T07:01:06.604Z,98452.72
2022-11-27T07:03:33.219Z,98462.00
2022-11-27T07:06:01.190Z,98458.66
2022-11-27T07:08:28.056Z,98469.28
2022-11-27T07:10:54.837Z,98485.91
2022-11-27T07:13:21.287Z,98454.81
2022-11-27T07:15:47.741Z,98467.09
2022-11-27T07:18:14.141Z,98493.78
2022-11-27T07:20:40.849Z,98485.63
2022-11-27T07:23:07.299Z,98493.22
2022-11-27T07:25:33.667Z,98497.06
2022-11-27T07:28:00.187Z,98467.88
2022-11-27T07:30:26.570Z,98486.41
2022-11-27T07:32:52.962Z,98494.91
2022-11-27T07:35:19.549Z,98497.59
2022-11-27T07:37:45.971Z,98498.72
2022-11-27T07:40:14.843Z,98490.59
2022-11-27T07:42:41.573Z,98502.94
2022-11-27T07:45:10.201Z,98484.91
2022-11-27T07:47:37.587Z,98486.84
2022-11-27T07:50:07.278Z,98503.94
2022-11-27T07:52:41.542Z,98485.72
2022-11-27T07:55:08.852Z,98470.06
2022-11-27T07:57:35.477Z,98449.31
2022-11-27T08:00:01.949Z,98427.81
2022-11-27T08:02:28.376Z,98387.22
2022-11-27T08:04:54.836Z,98407.72
2022-11-27T08:07:27.372Z,98444.53
2022-11-27T08:09:53.791Z,98449.00
2022-11-27T08:12:20.230Z,98468.09
2022-11-27T08:14:46.733Z,98460.25
2022-11-27T08:17:13.492Z,98472.06
2022-11-27T08:19:40.066Z,98459.56
2022-11-27T08:22:09.559Z,98488.06
2022-11-27T08:24:39.344Z,98454.16
2022-11-27T08:27:05.972Z,98460.34
2022-11-27T08:29:34.065Z,98483.06
2022-11-27T08:32:00.668Z,98499.22
2022-11-27T08:34:27.186Z,98486.69
2022-11-27T08:36:53.649Z,98520.50
2022-11-27T08:39:20.196Z,98504.38
2022-11-27T08:41:46.605Z,98519.44
2022-11-27T08:44:13.093Z,98488.25
2022-11-27T08:46:39.463Z,98531.00
2022-11-27T08:49:05.906Z,98501.22
2022-11-27T08:51:32.282Z,98487.09
2022-11-27T08:53:58.681Z,98497.22
2022-11-27T08:56:26.138Z,98517.09
2022-11-27T08:58:52.757Z,98514.72
2022-11-27T09:01:27.878Z,98469.47
2022-11-27T09:03:54.589Z,98465.19
2022-11-27T09:06:24.478Z,98473.00
2022-11-27T09:08:51.341Z,98465.41
2022-11-27T09:11:20.213Z,98464.66
2022-11-27T09:13:46.946Z,98473.13
2022-11-27T09:16:16.961Z,98489.69
2022-11-27T09:18:45.406Z,98476.22
2022-11-27T09:21:13.278Z,98479.88
2022-11-27T09:23:40.394Z,98461.44
2022-11-27T09:26:12.161Z,98491.53
2022-11-27T09:28:40.422Z,98502.44
2022-11-27T09:31:09.210Z,98487.38
2022-11-27T09:33:38.160Z,98509.94
2022-11-27T09:36:10.342Z,98488.38
2022-11-27T09:38:37.673Z,98521.03
2022-11-27T09:41:29.080Z,98487.19
2022-11-27T09:44:00.611Z,98470.84
2022-11-27T09:46:35.146Z,98477.50
2022-11-27T09:49:07.298Z,98483.31
2022-11-27T09:51:55.252Z,98483.94
2022-11-27T09:54:22.053Z,98480.63
2022-11-27T09:56:51.912Z,98476.63
2022-11-27T09:59:21.811Z,98470.84
2022-11-27T10:01:51.066Z,98473.59
2022-11-27T10:04:21.041Z,98448.69
2022-11-27T10:06:59.767Z,98424.91
2022-11-27T10:09:39.839Z,98432.56
2022-11-27T10:12:13.224Z,98432.09
2022-11-27T10:14:59.719Z,98436.00
2022-11-27T10:17:48.953Z,98460.63
2022-11-27T10:20:29.821Z,98431.09
2022-11-27T10:23:28.893Z,98454.28
2022-11-27T10:26:00.128Z,98461.28
2022-11-27T10:28:31.382Z,98449.03
2022-11-27T10:31:09.596Z,98387.88
2022-11-27T10:33:58.784Z,98434.88
2022-11-27T10:36:42.025Z,98387.50
2022-11-27T10:39:17.174Z,98440.09
2022-11-27T10:41:57.222Z,98433.44
2022-11-27T10:44:38.860Z,98445.47
2022-11-27T10:47:08.434Z,98425.03
2022-11-27T10:49:39.058Z,98445.94
2022-11-27T10:52:05.560Z,98453.81
2022-11-27T10:54:37.587Z,98447.19
2022-11-27T10:57:43.828Z,98438.69
2022-11-27T11:00:23.546Z,98453.78
2022-11-27T11:02:59.743Z,98433.13
2022-11-27T11:05:50.949Z,98458.94
2022-11-27T11:08:19.630Z,98445.75
2022-11-27T11:10:58.141Z,98453.63
2022-11-27T11:13:29.657Z,98470.47
2022-11-27T11:15:59.940Z,98458.75
2022-11-27T11:18:34.980Z,98470.91
2022-11-27T11:21:04.977Z,98463.13
2022-11-27T11:23:38.551Z,98462.72
2022-11-27T11:26:36.124Z,98460.44
2022-11-27T11:29:06.306Z,98444.81
2022-11-27T11:31:40.767Z,98461.09
2022-11-27T11:34:24.016Z,98470.50
2022-11-27T11:36:58.741Z,98456.75
2022-11-27T11:39:32.318Z,98467.28
2022-11-27T11:41:59.316Z,98468.84
2022-11-27T11:44:37.596Z,98453.72
2022-11-27T11:47:04.435Z,98421.91
2022-11-27T11:49:33.952Z,98456.06
2022-11-27T11:52:22.296Z,98457.63
2022-11-27T11:55:17.934Z,98450.91
2022-11-27T11:58:11.802Z,98436.31
2022-11-27T12:01:11.833Z,98454.00
2022-11-27T12:04:02.536Z,98453.81
2022-11-27T12:06:36.524Z,98462.50
2022-11-27T12:09:27.133Z,98435.59
2022-11-27T12:12:03.078Z,98457.56
2022-11-27T12:15:13.965Z,98475.75
2022-11-27T12:18:01.015Z,98481.53
2022-11-27T12:20:40.908Z,98450.56
2022-11-27T12:23:18.266Z,98442.16
2022-11-27T12:26:07.850Z,98444.91
2022-11-27T12:28:59.556Z,98435.06
2022-11-27T12:31:58.327Z,98438.94
2022-11-27T12:34:42.984Z,98427.66
2022-11-27T12:37:24.693Z,98435.59
2022-11-27T12:39:59.697Z,98414.78
2022-11-27T12:42:40.699Z,98417.06
2022-11-27T12:45:37.227Z,98415.06
2022-11-27T12:48:21.482Z,98414.78
2022-11-27T12:50:56.665Z,98398.69
2022-11-27T12:53:35.436Z,98413.38
2022-11-27T12:56:11.122Z,98407.03
2022-11-27T12:58:43.118Z,98403.44
2022-11-27T13:01:18.201Z,98393.88
2022-11-27T13:04:04.178Z,98385.66
2022-11-27T13:06:40.120Z,98378.31
2022-11-27T13:09:18.444Z,98377.97
2022-11-27T13:11:45.406Z,98381.44
2022-11-27T13:14:20.308Z,98377.53
2022-11-27T13:16:52.866Z,98370.78
2022-11-27T13:19:36.823Z,98357.22
2022-11-27T13:22:04.478Z,98359.38
2022-11-27T13:24:31.257Z,98369.25
2022-11-27T13:27:17.569Z,98351.03
2022-11-27T13:29:49.895Z,98355.72
2022-11-27T13:32:23.498Z,98349.28
2022-11-27T13:34:51.686Z,98349.97
2022-11-27T13:37:29.013Z,98338.53
2022-11-27T13:40:12.825Z,98334.97
2022-11-27T13:42:45.807Z,98300.78
2022-11-27T13:45:21.793Z,98339.31
2022-11-27T13:47:50.592Z,98345.94
2022-11-27T13:50:20.719Z,98339.31
2022-11-27T13:53:04.828Z,98343.09
2022-11-27T13:55:34.508Z,98335.19
2022-11-27T13:58:02.694Z,98320.28
2022-11-27T14:00:40.975Z,98325.56
2022-11-27T14:03:20.232Z,98337.09
2022-11-27T14:05:46.662Z,98321.25
2022-11-27T14:08:29.989Z,98318.63
2022-11-27T14:11:04.723Z,98328.22
2022-11-27T14:13:51.432Z,98324.19
2022-11-27T14:16:34.963Z,98316.25
2022-11-27T14:19:05.598Z,98327.19
2022-11-27T14:21:42.774Z,98314.75
2022-11-27T14:24:33.459Z,98327.97
2022-11-27T14:26:59.866Z,98309.50
2022-11-27T14:29:29.768Z,98313.94
2022-11-27T14:32:01.453Z,98313.25
2022-11-27T14:34:32.278Z,98292.91
2022-11-27T14:37:00.081Z,98302.31
2022-11-27T14:39:34.926Z,98290.69
2022-11-27T14:42:06.398Z,98289.06
2022-11-27T14:44:33.055Z,98285.72
2022-11-27T14:47:03.662Z,98280.75
2022-11-27T14:49:31.939Z,98274.34
2022-11-27T14:52:05.753Z,98269.25
2022-11-27T14:54:35.390Z,98268.97
2022-11-27T14:57:02.509Z,98243.91
2022-11-27T14:59:28.938Z,98254.44
2022-11-27T15:02:17.683Z,98251.69
2022-11-27T15:04:46.102Z,98235.34
2022-11-27T15:07:22.089Z,98228.41
2022-11-27T15:09:52.782Z,98210.38
2022-11-27T15:12:24.694Z,98212.03
2022-11-27T15:14:57.186Z,98212.00
2022-11-27T15:17:29.949Z,98192.78
2022-11-27T15:19:58.046Z,98197.47
2022-11-27T15:22:26.945Z,98196.25
2022-11-27T15:25:01.456Z,98182.09
2022-11-27T15:27:45.468Z,98194.06
2022-11-27T15:30:13.825Z,98187.91
2022-11-27T15:32:51.947Z,98194.84
2022-11-27T15:35:27.928Z,98177.84
2022-11-27T15:38:04.180Z,98170.09
2022-11-27T15:40:39.053Z,98167.66
2022-11-27T15:43:16.172Z,98170.22
2022-11-27T15:45:45.464Z,98152.78
2022-11-27T15:48:15.543Z,98146.88
2022-11-27T15:50:45.389Z,98158.22
2022-11-27T15:53:14.678Z,98154.31
2022-11-27T15:55:41.334Z,98156.09
2022-11-27T15:58:07.702Z,98127.50
2022-11-27T16:00:34.630Z,98152.97
2022-11-27T16:03:01.022Z,98149.31
2022-11-27T16:05:27.478Z,98141.19
2022-11-27T16:07:55.603Z,98156.53
2022-11-27T16:10:22.195Z,98154.63
2022-11-27T16:12:48.686Z,98158.84
2022-11-27T16:15:15.173Z,98161.03
2022-11-27T16:17:41.566Z,98157.38
2022-11-27T16:20:08.689Z,98158.84
2022-11-27T16:22:37.053Z,98154.38
2022-11-27T16:25:03.611Z,98150.91
2022-11-27T16:27:29.986Z,98153.53
2022-11-27T16:29:56.418Z,98150.28
2022-11-27T16:32:22.823Z,98147.13
2022-11-27T16:34:50.704Z,98151.44
2022-11-27T16:37:18.585Z,98151.38
2022-11-27T16:39:45.214Z,98145.81
2022-11-27T16:42:11.575Z,98148.09
2022-11-27T16:44:37.991Z,98140.03
2022-11-27T16:47:04.507Z,98112.91
2022-11-27T16:49:31.060Z,98123.47
2022-11-27T16:51:57.409Z,98111.75
2022-11-27T16:54:23.829Z,98062.41
2022-11-27T16:56:50.328Z,98125.13
2022-11-27T16:59:17.005Z,98112.25
2022-11-27T17:01:45.617Z,98119.94
2022-11-27T17:04:18.602Z,98111.00
2022-11-27T17:06:46.289Z,98107.22
2022-11-27T17:09:13.285Z,98100.91
2022-11-27T17:11:43.363Z,98093.47
2022-11-27T17:14:10.685Z,98089.88
2022-11-27T17:16:42.615Z,98100.19
2022-11-27T17:19:13.422Z,98099.38
2022-11-27T17:21:40.607Z,98105.56
2022-11-27T17:24:14.716Z,98098.44
2022-11-27T17:26:43.391Z,98076.47
2022-11-27T17:29:12.046Z,98075.97
2022-11-27T17:31:39.127Z,98089.22
2022-11-27T17:34:07.392Z,98080.09
2022-11-27T17:36:37.130Z,98067.41
2022-11-27T17:39:05.852Z,98076.00
2022-11-27T17:41:32.973Z,98060.38
2022-11-27T17:43:59.553Z,98066.69
2022-11-27T17:46:28.253Z,98061.78
2022-11-27T17:48:57.903Z,98056.19
2022-11-27T17:51:25.011Z,98052.56
2022-11-27T17:53:51.448Z,98063.16
2022-11-27T17:56:20.839Z,98044.09
2022-11-27T17:58:47.992Z,98045.44
2022-11-27T18:01:22.645Z,98038.78
2022-11-27T18:03:50.195Z,98043.75
2022-11-27T18:06:18.983Z,98047.56
2022-11-27T18:08:46.931Z,98025.75
2022-11-27T18:11:20.259Z,98024.66
2022-11-27T18:13:46.982Z,98041.81
2022-11-27T18:16:16.426Z,98039.94
2022-11-27T18:18:43.948Z,98022.47
2022-11-27T18:21:19.029Z,98031.53
2022-11-27T18:24:20.682Z,98026.56
2022-11-27T18:27:00.506Z,98024.84
2022-11-27T18:29:20.549Z,98014.91
2022-11-27T18:31:47.681Z,98019.84
2022-11-27T18:34:14.226Z,98014.81
2022-11-27T18:36:40.652Z,98008.41
2022-11-27T18:39:07.072Z,97997.63
2022-11-27T18:41:34.759Z,98003.25
2022-11-27T18:44:03.444Z,97990.84
2022-11-27T18:46:30.714Z,97990.31
2022-11-27T18:48:57.250Z,97947.13
2022-11-27T18:51:25.452Z,97989.25
2022-11-27T18:53:52.732Z,97980.13
2022-11-27T18:56:22.292Z,97991.81
2022-11-27T18:58:49.665Z,97976.84
2022-11-27T19:01:23.110Z,97993.16
2022-11-27T19:03:50.064Z,98004.03
2022-11-27T19:06:18.628Z,97984.78
2022-11-27T19:08:45.724Z,97998.44
2022-11-27T19:11:20.601Z,97985.25
2022-11-27T19:13:48.200Z,97971.22
2022-11-27T19:16:21.987Z,97974.09
2022-11-27T19:18:48.484Z,97979.34
2022-11-27T19:21:20.937Z,97971.47
2022-11-27T19:23:48.596Z,97985.41
2022-11-27T19:26:27.000Z,97963.38
2022-11-27T19:28:56.078Z,97968.97
2022-11-27T19:31:23.135Z,97963.38
2022-11-27T19:33:53.663Z,97979.09
2022-11-27T19:36:20.916Z,97966.00
2022-11-27T19:38:47.696Z,97944.06
2022-11-27T19:41:16.576Z,97956.59
2022-11-27T19:43:43.233Z,97945.94
2022-11-27T19:46:18.937Z,97950.13
2022-11-27T19:48:45.884Z,97928.69
2022-11-27T19:51:13.009Z,97938.91
2022-11-27T19:53:40.213Z,97942.09
2022-11-27T19:56:07.086Z,97933.28
2022-11-27T19:58:34.270Z,97937.69
2022-11-27T20:01:13.407Z,97931.94
2022-11-27T20:03:40.726Z,97926.69
2022-11-27T20:06:10.342Z,97912.44
2022-11-27T20:08:37.850Z,97921.91
2022-11-27T20:11:14.512Z,97902.09
2022-11-27T20:13:41.129Z,97906.81
2022-11-27T20:16:13.139Z,97898.56
2022-11-27T20:18:39.882Z,97898.56
2022-11-27T20:21:11.561Z,97890.00
2022-11-27T20:23:39.205Z,97881.44
2022-11-27T20:26:11.020Z,97880.75
2022-11-27T20:28:41.102Z,97874.81
2022-11-27T20:31:13.463Z,97866.00
2022-11-27T20:33:39.958Z,97852.47
2022-11-27T20:36:17.439Z,97849.03
2022-11-27T20:38:44.707Z,97843.19
2022-11-27T20:41:14.014Z,97842.38
2022-11-27T20:43:41.389Z,97849.56
2022-11-27T20:46:08.011Z,97839.59
2022-11-27T20:48:35.059Z,97844.00
2022-11-27T20:51:09.415Z,97825.81
2022-11-27T20:53:36.912Z,97834.00
2022-11-27T20:56:04.900Z,97832.16
2022-11-27T20:58:31.333Z,97822.81
2022-11-27T21:00:59.965Z,97825.28
2022-11-27T21:03:28.076Z,97819.19
2022-11-27T21:05:55.103Z,97822.91
2022-11-27T21:08:22.786Z,97827.63
2022-11-27T21:10:50.511Z,97822.56
2022-11-27T21:13:17.225Z,97818.78
2022-11-27T21:15:47.434Z,97781.75
2022-11-27T21:18:14.278Z,97820.72
2022-11-27T21:20:41.632Z,97795.31
2022-11-27T21:23:08.169Z,97804.84
2022-11-27T21:25:34.646Z,97796.97
2022-11-27T21:28:01.069Z,97801.25
2022-11-27T21:30:27.628Z,97805.16
2022-11-27T21:32:54.843Z,97782.25
2022-11-27T21:35:21.531Z,97759.59
2022-11-27T21:37:48.119Z,97792.97
2022-11-27T21:40:15.104Z,97781.78
2022-11-27T21:42:44.539Z,97791.59
2022-11-27T21:45:12.274Z,97786.81
2022-11-27T21:47:38.690Z,97791.63
2022-11-27T21:50:06.243Z,97768.50
2022-11-27T21:52:32.720Z,97772.47
2022-11-27T21:54:59.108Z,97769.25
2022-11-27T21:57:25.533Z,97762.53
2022-11-27T21:59:51.924Z,97763.00
2022-11-27T22:02:18.384Z,97776.13
2022-11-27T22:04:45.086Z,97757.34
2022-11-27T22:07:11.806Z,97782.19
2022-11-27T22:09:38.307Z,97773.38
2022-11-27T22:12:04.858Z,97784.66
2022-11-27T22:14:31.840Z,97771.03
2022-11-27T22:16:58.346Z,97769.81
2022-11-27T22:19:24.775Z,97759.19
2022-11-27T22:21:51.303Z,97770.63
2022-11-27T22:24:19.653Z,97760.28
2022-11-27T22:26:48.626Z,97766.22
2022-11-27T22:29:15.270Z,97769.25
2022-11-27T22:31:41.764Z,97758.47
2022-11-27T22:34:08.148Z,97768.97
2022-11-27T22:36:35.286Z,97757.34
2022-11-27T22:39:05.786Z,97766.38
2022-11-27T22:41:36.296Z,97770.28
2022-11-27T22:44:14.116Z,97733.53
2022-11-27T22:46:42.283Z,97759.53
2022-11-27T22:49:11.943Z,97763.41
2022-11-27T22:51:38.864Z,97739.66
2022-11-27T22:54:07.821Z,97756.75
2022-11-27T22:56:36.663Z,97749.31
2022-11-27T22:59:31.605Z,97749.06
2022-11-27T23:01:51.746Z,97744.91
2022-11-27T23:04:18.197Z,97722.13
2022-11-27T23:06:47.915Z,97736.66
2022-11-27T23:09:16.093Z,97726.00
2022-11-27T23:11:43.721Z,97711.97
2022-11-27T23:14:10.456Z,97711.03
2022-11-27T23:16:37.057Z,97711.59
2022-11-27T23:19:03.869Z,97703.53
2022-11-27T23:21:30.598Z,97687.41
2022-11-27T23:23:56.993Z,97683.09
2022-11-27T23:26:24.295Z,97671.69
2022-11-27T23:28:53.445Z,97671.56
2022-11-27T23:31:30.893Z,97652.78
2022-11-27T23:34:01.632Z,97655.56
2022-11-27T23:36:29.035Z,97661.13
2022-11-27T23:38:55.571Z,97645.13
2022-11-27T23:41:24.220Z,97642.09
2022-11-27T23:43:52.626Z,97652.03
2022-11-27T23:46:21.724Z,97624.69
2022-11-27T23:48:48.456Z,97639.06
2022-11-27T23:51:18.040Z,97645.41
2022-11-27T23:53:44.710Z,97641.81
2022-11-27T23:56:14.864Z,97633.41
2022-11-27T23:58:46.726Z,97609.56
